Time;durP1;ratioP1;P1;durP2;ratioP2;P2;SDS_P1;SDS_P2;PMS_P1;PMS_P2;Temp;Humidity;BMP_temperature;BMP_pressure;BME280_temperature;BME280_humidity;BME280_pressure;Samples;Min_cycle;Max_cycle;Signal;HPM_P1;HPM_P2
2023/10/29 00:02:14;;;;;;;11.07;6.00;;;10.90;99.90;;;;;;5017367;28;20041;-61
2023/10/29 00:04:39;;;;;;;10.13;6.22;;;11.10;99.90;;;;;;5001426;28;20437;-61
2023/10/29 00:07:05;;;;;;;8.35;5.85;;;11.20;99.90;;;;;;5016894;28;20144;-61
2023/10/29 00:09:31;;;;;;;8.52;5.80;;;10.90;99.90;;;;;;5017999;28;20048;-61
2023/10/29 00:11:57;;;;;;;10.63;5.70;;;11.10;99.90;;;;;;5035117;28;20144;-61
2023/10/29 00:14:24;;;;;;;8.93;5.78;;;11.10;99.90;;;;;;5017309;28;20049;-61
2023/10/29 00:16:50;;;;;;;9.35;5.95;;;11.00;99.90;;;;;;5017705;28;20034;-60
2023/10/29 00:19:15;;;;;;;10.90;5.45;;;11.00;99.90;;;;;;5016957;28;20045;-60
2023/10/29 00:21:42;;;;;;;9.38;6.32;;;10.90;99.90;;;;;;5017232;28;20033;-60
2023/10/29 00:24:08;;;;;;;7.70;5.07;;;11.10;99.90;;;;;;5017091;28;20042;-60
2023/10/29 00:26:34;;;;;;;9.00;5.20;;;11.10;99.90;;;;;;5035986;28;20052;-60
2023/10/29 00:29:00;;;;;;;9.23;6.38;;;11.20;99.90;;;;;;5016344;28;20041;-60
2023/10/29 00:31:26;;;;;;;7.85;5.70;;;11.20;99.90;;;;;;5017622;28;20478;-60
2023/10/29 00:33:53;;;;;;;8.10;5.18;;;11.00;99.90;;;;;;5034907;28;20037;-59
2023/10/29 00:36:18;;;;;;;7.45;5.07;;;11.10;99.90;;;;;;5016686;28;20079;-60
2023/10/29 00:38:44;;;;;;;7.22;5.07;;;11.00;99.90;;;;;;5035032;28;20050;-60
2023/10/29 00:41:10;;;;;;;6.65;4.65;;;11.10;99.90;;;;;;5039801;28;20090;-60
2023/10/29 00:43:41;;;;;;;7.15;4.28;;;11.10;99.90;;;;;;5020003;28;20076;-60
2023/10/29 00:46:08;;;;;;;6.07;4.18;;;11.10;99.90;;;;;;5036570;28;20040;-60
2023/10/29 00:48:34;;;;;;;7.15;3.97;;;11.20;99.90;;;;;;5037305;28;20049;-60
2023/10/29 00:51:01;;;;;;;8.60;4.82;;;11.20;99.90;;;;;;5044042;28;20033;-60
2023/10/29 00:53:28;;;;;;;5.78;3.58;;;11.00;99.90;;;;;;5001060;28;20041;-59
2023/10/29 00:55:54;;;;;;;6.07;3.72;;;11.20;99.90;;;;;;5033471;28;20042;-60
2023/10/29 00:58:23;;;;;;;6.75;4.28;;;11.10;99.90;;;;;;5034755;28;20044;-60
2023/10/29 01:00:49;;;;;;;6.97;3.60;;;11.30;99.90;;;;;;5034805;28;20038;-60
2023/10/29 01:03:16;;;;;;;5.45;3.00;;;11.10;99.90;;;;;;5015521;28;20037;-60
2023/10/29 01:05:42;;;;;;;6.65;3.78;;;11.20;99.90;;;;;;5034547;28;20041;-60
2023/10/29 01:08:08;;;;;;;8.00;3.30;;;11.20;99.90;;;;;;5019399;28;20110;-60
2023/10/29 01:10:34;;;;;;;5.68;3.20;;;11.20;99.90;;;;;;5033733;28;20052;-60
2023/10/29 01:13:00;;;;;;;6.82;3.30;;;11.30;99.90;;;;;;5015963;28;20065;-60
2023/10/29 01:15:25;;;;;;;7.00;3.38;;;11.30;99.90;;;;;;5000212;28;20376;-60
2023/10/29 01:17:51;;;;;;;5.90;3.42;;;11.40;99.90;;;;;;5016109;28;20154;-60
2023/10/29 01:20:17;;;;;;;7.22;3.72;;;11.40;99.90;;;;;;5020791;28;20056;-60
2023/10/29 01:22:44;;;;;;;6.10;3.72;;;11.40;99.90;;;;;;5036327;28;20041;-60
2023/10/29 01:25:10;;;;;;;6.70;3.35;;;11.40;99.90;;;;;;5034992;28;20094;-60
2023/10/29 01:27:37;;;;;;;6.82;3.75;;;11.40;99.90;;;;;;5054449;28;20048;-60
2023/10/29 01:30:05;;;;;;;5.10;2.95;;;11.40;99.90;;;;;;5053426;28;20080;-59
2023/10/29 01:32:31;;;;;;;5.80;3.20;;;11.40;99.90;;;;;;5019167;28;20049;-60
2023/10/29 01:34:56;;;;;;;5.63;3.42;;;11.50;99.90;;;;;;5053571;28;20048;-60
2023/10/29 01:37:22;;;;;;;5.43;3.50;;;11.70;99.90;;;;;;5053553;28;20401;-60
2023/10/29 01:39:48;;;;;;;7.18;3.80;;;11.70;99.90;;;;;;5035394;28;20045;-60
2023/10/29 01:42:13;;;;;;;5.55;3.63;;;11.60;99.90;;;;;;5035459;28;20099;-60
2023/10/29 01:44:39;;;;;;;6.50;4.03;;;11.80;99.90;;;;;;5035905;28;20052;-61
2023/10/29 01:47:05;;;;;;;6.57;4.63;;;11.80;99.90;;;;;;5052565;28;20067;-61
2023/10/29 01:49:31;;;;;;;7.65;4.32;;;11.90;99.90;;;;;;5035722;28;20124;-61
2023/10/29 01:51:57;;;;;;;8.13;3.95;;;11.70;99.90;;;;;;5035150;28;20064;-61
2023/10/29 01:54:23;;;;;;;6.72;4.25;;;11.80;99.90;;;;;;5018473;28;20049;-61
2023/10/29 01:56:48;;;;;;;6.45;4.40;;;11.80;99.90;;;;;;5036057;28;20040;-61
2023/10/29 01:59:15;;;;;;;7.60;4.28;;;11.90;99.90;;;;;;5034040;28;20033;-61
2023/10/29 02:01:41;;;;;;;7.15;4.57;;;12.00;99.90;;;;;;5053536;28;20070;-60
2023/10/29 02:04:11;;;;;;;7.30;4.35;;;11.80;99.90;;;;;;5035039;28;20115;-61
2023/10/29 02:06:39;;;;;;;7.95;4.18;;;11.90;99.90;;;;;;5034713;28;20040;-61
2023/10/29 02:09:09;;;;;;;7.45;4.45;;;11.90;99.90;;;;;;5035050;28;20052;-61
2023/10/29 02:11:36;;;;;;;6.00;3.80;;;11.90;99.90;;;;;;5053161;28;20126;-61
2023/10/29 02:14:02;;;;;;;6.95;4.70;;;12.00;99.90;;;;;;5034196;28;20179;-61
2023/10/29 02:16:28;;;;;;;5.93;3.88;;;12.00;99.90;;;;;;5035282;28;20107;-61
2023/10/29 02:18:53;;;;;;;6.88;3.95;;;12.00;99.90;;;;;;5034967;28;20048;-62
2023/10/29 02:21:20;;;;;;;7.95;4.35;;;12.10;99.90;;;;;;5019081;28;20041;-62
2023/10/29 02:23:46;;;;;;;7.70;3.53;;;12.00;99.90;;;;;;5034425;28;20502;-61
2023/10/29 02:26:12;;;;;;;6.30;3.90;;;12.10;99.90;;;;;;5014788;28;20045;-62
2023/10/29 02:28:37;;;;;;;7.40;4.22;;;12.20;99.90;;;;;;5032184;28;20091;-61
2023/10/29 02:31:03;;;;;;;7.57;3.47;;;12.10;99.90;;;;;;5018678;28;20132;-61
2023/10/29 02:33:30;;;;;;;7.32;2.92;;;12.20;99.90;;;;;;5028512;28;20477;-62
2023/10/29 02:35:56;;;;;;;6.63;2.42;;;12.10;99.90;;;;;;5017298;28;20048;-62
2023/10/29 02:38:23;;;;;;;5.28;2.53;;;12.10;99.90;;;;;;5018653;28;20055;-62
2023/10/29 02:40:49;;;;;;;5.78;2.58;;;12.20;99.90;;;;;;5052889;28;20048;-61
2023/10/29 02:43:16;;;;;;;4.82;2.70;;;12.10;99.90;;;;;;5051296;28;20033;-62
2023/10/29 02:45:42;;;;;;;5.93;2.45;;;12.10;99.90;;;;;;5035024;28;20044;-62
2023/10/29 02:48:08;;;;;;;7.80;2.35;;;12.30;99.90;;;;;;5052330;28;20043;-61
2023/10/29 02:50:38;;;;;;;4.63;2.03;;;12.40;99.90;;;;;;5051724;28;20045;-62
2023/10/29 02:53:03;;;;;;;4.88;2.10;;;12.20;99.90;;;;;;5032740;28;20048;-62
2023/10/29 02:55:29;;;;;;;5.75;2.00;;;12.40;99.90;;;;;;5034152;28;20131;-62
2023/10/29 02:57:55;;;;;;;3.60;1.50;;;12.20;99.90;;;;;;5033956;28;20482;-62
2023/10/29 03:00:20;;;;;;;5.07;1.70;;;12.30;99.90;;;;;;5034404;28;20497;-63
2023/10/29 03:02:46;;;;;;;9.15;2.40;;;12.50;99.90;;;;;;5033416;28;20045;-62
2023/10/29 03:05:12;;;;;;;5.55;1.67;;;12.30;99.90;;;;;;5025596;28;20102;-62
2023/10/29 03:07:38;;;;;;;4.68;1.70;;;12.40;99.90;;;;;;5014807;28;20037;-62
2023/10/29 03:10:07;;;;;;;4.30;1.70;;;12.40;99.90;;;;;;5013430;28;20037;-62
2023/10/29 03:12:32;;;;;;;6.65;1.45;;;12.30;99.90;;;;;;4998047;28;20049;-62
2023/10/29 03:15:00;;;;;;;4.90;1.70;;;12.50;99.90;;;;;;4997948;28;20049;-62
2023/10/29 03:17:26;;;;;;;3.60;1.42;;;12.40;99.90;;;;;;4997808;28;20037;-62
2023/10/29 03:19:51;;;;;;;5.05;1.30;;;12.40;99.90;;;;;;5003115;28;20044;-63
2023/10/29 03:22:17;;;;;;;5.47;1.80;;;12.20;99.90;;;;;;5017700;28;20506;-62
2023/10/29 03:24:44;;;;;;;4.18;1.58;;;12.50;99.90;;;;;;5033965;28;20540;-62
2023/10/29 03:27:09;;;;;;;4.15;1.30;;;12.40;99.90;;;;;;5034022;28;20045;-62
2023/10/29 03:29:35;;;;;;;3.50;1.55;;;12.40;99.90;;;;;;5034639;28;20094;-62
2023/10/29 03:32:01;;;;;;;4.57;1.60;;;12.50;99.90;;;;;;5032786;28;20045;-62
2023/10/29 03:34:26;;;;;;;4.28;1.23;;;12.40;99.90;;;;;;5034384;28;20398;-63
2023/10/29 03:36:52;;;;;;;5.00;1.63;;;12.40;99.90;;;;;;5034080;28;20063;-62
2023/10/29 03:39:18;;;;;;;3.53;1.45;;;12.40;99.90;;;;;;5044851;28;20356;-62
2023/10/29 03:41:43;;;;;;;3.70;1.60;;;12.60;99.90;;;;;;5032093;28;20037;-63
2023/10/29 03:44:09;;;;;;;3.97;1.45;;;12.50;99.90;;;;;;4997652;28;20499;-62
2023/10/29 03:46:34;;;;;;;2.88;1.20;;;12.60;99.90;;;;;;5013681;28;20167;-63
2023/10/29 03:49:00;;;;;;;4.07;1.15;;;12.50;99.90;;;;;;5013799;28;20045;-62
2023/10/29 03:51:28;;;;;;;6.07;1.40;;;12.60;99.90;;;;;;5014380;28;20045;-62
2023/10/29 03:53:54;;;;;;;3.10;1.45;;;12.60;99.90;;;;;;5013309;28;20135;-62
2023/10/29 03:56:20;;;;;;;3.03;1.10;;;12.50;99.90;;;;;;5014399;28;20621;-63
2023/10/29 03:58:46;;;;;;;3.10;1.10;;;12.60;99.90;;;;;;5031354;28;20132;-62
2023/10/29 04:01:15;;;;;;;2.80;1.08;;;12.60;99.90;;;;;;5020609;28;20041;-62
2023/10/29 04:03:43;;;;;;;6.40;1.20;;;12.60;99.90;;;;;;5005188;28;20045;-62
2023/10/29 04:06:10;;;;;;;3.83;0.98;;;12.50;99.90;;;;;;5032864;28;20041;-62
2023/10/29 04:08:37;;;;;;;4.15;1.00;;;12.50;99.90;;;;;;5042249;28;20073;-63
2023/10/29 04:11:03;;;;;;;3.33;1.10;;;12.60;99.90;;;;;;5031359;28;20079;-63
2023/10/29 04:13:29;;;;;;;4.65;1.52;;;12.60;99.90;;;;;;5013387;28;20142;-63
2023/10/29 04:15:54;;;;;;;4.28;1.25;;;12.60;99.90;;;;;;5022555;28;20084;-63
2023/10/29 04:18:24;;;;;;;3.83;1.48;;;12.60;99.90;;;;;;5037495;28;20040;-62
2023/10/29 04:20:50;;;;;;;3.25;1.13;;;12.50;99.90;;;;;;5054027;28;20370;-63
2023/10/29 04:23:16;;;;;;;3.72;1.25;;;12.60;99.90;;;;;;5036994;28;20043;-63
2023/10/29 04:25:44;;;;;;;3.63;1.15;;;12.50;99.90;;;;;;5037534;28;20428;-63
2023/10/29 04:28:10;;;;;;;3.33;1.35;;;12.70;99.90;;;;;;5036327;28;20056;-63
2023/10/29 04:30:36;;;;;;;4.00;1.20;;;12.60;99.90;;;;;;5035500;28;20059;-62
2023/10/29 04:33:02;;;;;;;3.38;1.20;;;12.60;99.90;;;;;;5016813;28;20120;-63
2023/10/29 04:35:29;;;;;;;5.90;1.05;;;12.60;99.90;;;;;;5016723;28;20045;-62
2023/10/29 04:37:55;;;;;;;5.60;1.27;;;12.50;99.90;;;;;;5017005;28;20051;-63
2023/10/29 04:40:20;;;;;;;3.53;1.00;;;12.50;99.90;;;;;;5035259;28;20045;-63
2023/10/29 04:42:46;;;;;;;3.40;0.90;;;12.30;99.90;;;;;;5016987;28;20037;-63
2023/10/29 04:45:12;;;;;;;2.88;0.77;;;12.30;99.90;;;;;;5029208;28;20102;-63
2023/10/29 04:47:37;;;;;;;2.72;0.88;;;12.10;99.90;;;;;;5037117;28;20037;-62
2023/10/29 04:50:05;;;;;;;5.50;0.80;;;12.10;99.90;;;;;;5036182;28;20128;-63
2023/10/29 04:52:30;;;;;;;3.28;0.98;;;12.10;99.90;;;;;;5020295;28;20051;-63
2023/10/29 04:54:56;;;;;;;1.58;0.60;;;11.90;99.90;;;;;;5053690;28;20421;-63
2023/10/29 04:57:22;;;;;;;3.63;0.80;;;11.90;99.90;;;;;;5020479;28;20374;-63
2023/10/29 04:59:48;;;;;;;1.75;0.70;;;11.80;99.90;;;;;;5036668;28;20468;-62
2023/10/29 05:02:15;;;;;;;2.15;0.47;;;12.00;99.90;;;;;;5020570;28;20056;-63
2023/10/29 05:04:41;;;;;;;7.70;0.80;;;11.80;99.90;;;;;;5000549;28;20474;-63
2023/10/29 05:07:08;;;;;;;5.40;1.15;;;11.90;99.90;;;;;;5016434;28;20112;-63
2023/10/29 05:09:35;;;;;;;2.10;0.80;;;11.90;99.90;;;;;;5016265;28;20129;-63
2023/10/29 05:12:01;;;;;;;0.80;0.40;;;11.70;99.90;;;;;;5035676;28;20049;-63
2023/10/29 05:14:26;;;;;;;3.58;0.93;;;11.70;99.90;;;;;;5036597;28;20120;-63
2023/10/29 05:16:52;;;;;;;1.00;0.43;;;11.70;99.90;;;;;;5035521;28;20116;-63
2023/10/29 05:19:18;;;;;;;3.90;0.75;;;11.80;99.90;;;;;;5035381;28;20056;-63
2023/10/29 05:21:44;;;;;;;2.72;1.00;;;11.70;99.90;;;;;;5018898;28;20041;-63
2023/10/29 05:24:10;;;;;;;3.90;0.95;;;11.80;99.90;;;;;;5033013;28;20044;-63
2023/10/29 05:26:37;;;;;;;0.95;0.43;;;11.70;99.90;;;;;;5049074;28;20045;-63
2023/10/29 05:29:05;;;;;;;2.25;0.70;;;11.80;99.90;;;;;;5015916;28;20107;-63
2023/10/29 05:31:32;;;;;;;2.25;1.10;;;11.80;99.90;;;;;;5016049;28;20038;-63
2023/10/29 05:33:58;;;;;;;2.45;1.00;;;11.90;99.90;;;;;;5033592;28;20435;-62
2023/10/29 05:36:23;;;;;;;2.85;0.80;;;11.90;99.90;;;;;;5016128;28;20080;-63
2023/10/29 05:38:49;;;;;;;2.28;0.80;;;12.00;99.90;;;;;;5015786;28;20077;-63
2023/10/29 05:41:15;;;;;;;2.83;0.70;;;12.00;99.90;;;;;;5016122;28;20076;-63
2023/10/29 05:43:43;;;;;;;2.65;0.80;;;12.00;99.90;;;;;;5016182;28;20046;-63
2023/10/29 05:46:15;;;;;;;3.90;1.15;;;12.00;99.90;;;;;;5014958;28;20072;-63
2023/10/29 05:48:41;;;;;;;3.00;0.90;;;12.00;99.90;;;;;;5016027;28;20047;-63
2023/10/29 05:51:12;;;;;;;2.28;0.75;;;12.10;99.90;;;;;;5015572;28;20034;-63
2023/10/29 05:53:41;;;;;;;2.65;1.00;;;12.10;99.90;;;;;;5016300;28;20104;-63
2023/10/29 05:56:06;;;;;;;3.33;0.80;;;12.20;99.90;;;;;;5033436;28;20116;-63
2023/10/29 05:58:33;;;;;;;5.30;2.13;;;12.20;99.90;;;;;;5015089;28;20889;-63
2023/10/29 06:00:59;;;;;;;4.07;1.10;;;12.30;99.90;;;;;;5015524;28;20046;-63
2023/10/29 06:03:24;;;;;;;3.80;0.98;;;12.20;99.90;;;;;;5033713;28;20052;-63
2023/10/29 06:05:52;;;;;;;3.47;0.75;;;12.20;99.90;;;;;;5032919;28;20038;-63
2023/10/29 06:08:18;;;;;;;2.17;0.65;;;12.10;99.90;;;;;;5018491;28;20079;-62
2023/10/29 06:10:43;;;;;;;3.13;0.95;;;12.20;99.90;;;;;;5051343;28;20076;-62
2023/10/29 06:13:09;;;;;;;3.88;1.15;;;12.20;99.90;;;;;;5016932;28;20104;-62
2023/10/29 06:15:35;;;;;;;3.08;0.90;;;12.10;99.90;;;;;;5015658;28;20522;-63
2023/10/29 06:18:04;;;;;;;5.30;1.30;;;12.20;99.90;;;;;;4998686;28;20041;-63
2023/10/29 06:20:29;;;;;;;2.72;0.90;;;12.10;99.90;;;;;;4983837;28;20034;-63
2023/10/29 06:22:55;;;;;;;3.22;1.15;;;12.00;99.90;;;;;;5028023;28;20483;-62
2023/10/29 06:25:21;;;;;;;4.85;1.23;;;12.10;99.90;;;;;;4995878;28;20076;-62
2023/10/29 06:27:46;;;;;;;4.60;0.90;;;12.10;99.90;;;;;;5027744;28;20046;-62
2023/10/29 06:30:12;;;;;;;3.22;1.00;;;12.10;99.90;;;;;;4995196;28;20056;-62
2023/10/29 06:32:38;;;;;;;3.05;0.73;;;12.00;99.90;;;;;;5028540;28;20042;-62
2023/10/29 06:35:04;;;;;;;3.83;1.10;;;12.10;99.90;;;;;;5027502;28;20077;-63
2023/10/29 06:37:30;;;;;;;3.83;0.80;;;12.00;99.90;;;;;;5028383;28;20100;-63
2023/10/29 06:39:56;;;;;;;3.97;1.00;;;12.00;99.90;;;;;;5012525;28;20442;-63
2023/10/29 06:42:22;;;;;;;5.78;0.80;;;12.00;99.90;;;;;;4994839;28;20050;-63
2023/10/29 06:44:47;;;;;;;2.42;0.90;;;12.10;99.90;;;;;;5028435;28;20408;-63
2023/10/29 06:47:14;;;;;;;3.47;1.30;;;12.00;99.90;;;;;;5012616;28;20372;-62
2023/10/29 06:49:40;;;;;;;3.42;1.40;;;12.00;99.90;;;;;;4994989;28;20404;-62
2023/10/29 06:52:07;;;;;;;6.20;1.67;;;12.00;99.90;;;;;;5027345;28;20104;-62
2023/10/29 06:54:33;;;;;;;3.60;1.30;;;11.90;99.90;;;;;;5027790;28;20053;-62
2023/10/29 06:56:58;;;;;;;4.68;1.50;;;12.00;99.90;;;;;;4994822;28;20475;-62
2023/10/29 06:59:24;;;;;;;6.00;1.40;;;12.00;99.90;;;;;;4995520;28;20080;-62
2023/10/29 07:01:50;;;;;;;4.50;1.20;;;12.00;99.90;;;;;;5012044;28;20053;-63
2023/10/29 07:04:16;;;;;;;3.90;1.10;;;12.00;99.90;;;;;;4996472;28;20062;-62
2023/10/29 07:06:51;;;;;;;6.40;1.55;;;12.10;99.90;;;;;;5009944;28;20084;-63
2023/10/29 07:09:18;;;;;;;5.53;1.00;;;12.20;99.90;;;;;;5003564;28;20111;-62
2023/10/29 07:11:44;;;;;;;7.13;2.03;;;12.20;99.90;;;;;;5031022;28;20110;-63
2023/10/29 07:14:11;;;;;;;3.33;1.23;;;12.10;99.90;;;;;;5034108;28;20057;-63
2023/10/29 07:16:39;;;;;;;4.25;1.10;;;12.20;99.90;;;;;;5051553;28;20045;-63
2023/10/29 07:19:04;;;;;;;3.20;1.10;;;12.20;99.90;;;;;;5033835;28;20102;-63
2023/10/29 07:21:30;;;;;;;7.85;1.60;;;12.20;99.90;;;;;;5017708;28;20529;-64
2023/10/29 07:23:56;;;;;;;3.13;1.23;;;12.20;99.90;;;;;;5033319;28;20371;-64
2023/10/29 07:26:22;;;;;;;4.22;1.30;;;12.30;99.90;;;;;;5017587;28;20103;-64
2023/10/29 07:28:47;;;;;;;4.68;1.33;;;12.30;99.90;;;;;;4998384;28;20073;-64
2023/10/29 07:31:13;;;;;;;4.07;1.10;;;12.30;99.90;;;;;;5013335;28;20126;-64
2023/10/29 07:33:39;;;;;;;4.13;1.20;;;12.30;99.90;;;;;;5014704;28;20650;-63
2023/10/29 07:36:05;;;;;;;7.57;1.38;;;12.40;99.90;;;;;;5010067;28;20041;-63
2023/10/29 07:38:30;;;;;;;5.70;1.90;;;12.40;99.90;;;;;;5013636;28;20049;-64
2023/10/29 07:40:56;;;;;;;9.27;1.80;;;12.40;99.90;;;;;;5013982;28;20395;-63
2023/10/29 07:43:22;;;;;;;4.22;1.20;;;12.40;99.90;;;;;;5047493;28;20454;-63
2023/10/29 07:45:51;;;;;;;6.40;1.67;;;12.50;99.90;;;;;;5036878;28;20427;-63
2023/10/29 07:48:18;;;;;;;4.68;1.70;;;12.50;99.90;;;;;;5031316;28;20045;-63
2023/10/29 07:50:51;;;;;;;6.03;1.30;;;12.60;99.90;;;;;;5026461;28;20049;-62
2023/10/29 07:53:17;;;;;;;7.95;1.40;;;12.60;99.90;;;;;;5033197;28;20056;-62
2023/10/29 07:55:42;;;;;;;7.05;1.33;;;12.70;99.90;;;;;;4999693;28;20049;-62
2023/10/29 07:58:08;;;;;;;5.47;1.40;;;12.70;99.90;;;;;;5014334;28;20168;-62
2023/10/29 08:00:35;;;;;;;4.80;1.27;;;12.80;99.90;;;;;;5033469;28;20144;-62
2023/10/29 08:03:01;;;;;;;5.10;1.20;;;12.80;99.90;;;;;;5022132;28;20140;-62
2023/10/29 08:05:27;;;;;;;6.05;1.30;;;12.80;99.90;;;;;;5016220;28;20132;-62
2023/10/29 08:07:52;;;;;;;4.95;1.02;;;12.70;99.90;;;;;;5018338;28;20482;-62
2023/10/29 08:10:18;;;;;;;6.07;1.45;;;12.60;99.90;;;;;;5035279;28;20045;-62
2023/10/29 08:12:44;;;;;;;4.90;1.48;;;12.50;99.90;;;;;;5020781;28;20506;-62
2023/10/29 08:15:10;;;;;;;7.93;1.58;;;12.40;99.90;;;;;;4998483;28;20168;-62
2023/10/29 08:17:36;;;;;;;8.23;1.75;;;12.30;99.90;;;;;;5024636;28;20560;-62
2023/10/29 08:20:02;;;;;;;8.88;1.83;;;12.30;99.90;;;;;;5012277;28;20076;-62
2023/10/29 08:22:28;;;;;;;8.18;1.42;;;12.20;99.90;;;;;;5014502;28;20582;-62
2023/10/29 08:24:55;;;;;;;9.80;1.70;;;12.20;99.90;;;;;;5013717;28;20047;-61
2023/10/29 08:27:21;;;;;;;6.97;1.40;;;12.10;99.90;;;;;;5013536;28;20038;-61
2023/10/29 08:29:49;;;;;;;7.30;1.85;;;12.10;99.90;;;;;;5012515;28;20037;-62
2023/10/29 08:32:17;;;;;;;6.15;1.48;;;12.00;99.90;;;;;;5013508;28;20053;-61
2023/10/29 08:34:44;;;;;;;6.95;1.60;;;12.10;99.90;;;;;;5013341;28;20049;-62
2023/10/29 08:37:10;;;;;;;7.45;1.67;;;12.20;99.90;;;;;;5013439;28;20092;-62
2023/10/29 08:39:36;;;;;;;5.13;1.27;;;12.30;99.90;;;;;;4997722;28;20506;-61
2023/10/29 08:42:03;;;;;;;6.28;1.92;;;12.30;99.90;;;;;;5012546;28;20573;-62
2023/10/29 08:44:29;;;;;;;4.78;1.77;;;12.50;99.90;;;;;;5014339;28;20125;-61
2023/10/29 08:46:54;;;;;;;7.63;2.78;;;12.50;99.90;;;;;;4992781;28;20038;-61
2023/10/29 08:52:48;;;;;;;5.28;1.65;;;12.70;99.90;;;;;;5011468;28;20181;-62
2023/10/29 08:55:15;;;;;;;5.88;1.95;;;12.70;99.90;;;;;;5012874;28;20118;-62
2023/10/29 08:57:40;;;;;;;7.20;2.00;;;12.80;99.90;;;;;;5013481;28;20041;-62
2023/10/29 09:00:07;;;;;;;6.22;1.50;;;12.80;99.90;;;;;;5013034;28;20037;-62
2023/10/29 09:02:32;;;;;;;4.40;1.33;;;12.80;99.90;;;;;;5012267;28;20449;-62
2023/10/29 09:04:58;;;;;;;5.38;1.42;;;12.70;99.90;;;;;;5010961;28;20037;-62
2023/10/29 09:07:25;;;;;;;6.95;1.30;;;12.60;99.90;;;;;;5013946;28;20037;-62
2023/10/29 09:09:52;;;;;;;6.45;1.35;;;12.60;99.90;;;;;;5012142;28;20053;-63
2023/10/29 09:12:18;;;;;;;7.00;2.20;;;12.60;99.90;;;;;;5021750;28;20421;-63
2023/10/29 09:14:44;;;;;;;7.03;1.63;;;12.60;99.90;;;;;;5028271;28;20372;-62
2023/10/29 09:17:10;;;;;;;10.77;1.83;;;12.60;99.90;;;;;;5028755;28;20163;-62
2023/10/29 09:19:35;;;;;;;5.68;1.70;;;12.60;99.90;;;;;;5017609;28;20122;-62
2023/10/29 09:22:02;;;;;;;8.88;1.70;;;12.60;99.90;;;;;;5024888;28;20041;-62
2023/10/29 09:24:27;;;;;;;6.80;1.90;;;12.60;99.90;;;;;;5013291;28;20041;-62
2023/10/29 09:26:53;;;;;;;9.77;2.38;;;12.60;99.90;;;;;;5015864;28;20048;-62
2023/10/29 09:29:19;;;;;;;9.23;3.50;;;12.50;99.90;;;;;;5029320;28;20052;-63
2023/10/29 09:31:45;;;;;;;6.35;2.70;;;12.50;99.90;;;;;;5033440;28;20394;-63
2023/10/29 09:34:11;;;;;;;4.32;1.48;;;12.40;99.90;;;;;;5032664;28;20383;-62
2023/10/29 09:36:38;;;;;;;8.10;2.40;;;12.40;99.90;;;;;;5032753;28;20049;-62
2023/10/29 09:39:05;;;;;;;5.47;2.15;;;12.40;99.90;;;;;;5031649;28;20093;-62
2023/10/29 09:41:31;;;;;;;6.97;1.50;;;12.40;99.90;;;;;;4998387;28;20044;-62
2023/10/29 09:43:58;;;;;;;6.65;2.35;;;12.50;99.90;;;;;;5027054;28;20064;-62
2023/10/29 09:46:25;;;;;;;11.10;2.38;;;12.50;99.90;;;;;;5049854;28;20048;-62
2023/10/29 09:48:53;;;;;;;6.72;1.83;;;12.70;99.90;;;;;;5032153;28;20057;-62
2023/10/29 09:51:20;;;;;;;8.75;2.70;;;12.80;99.90;;;;;;5026603;28;20077;-62
2023/10/29 09:53:46;;;;;;;6.68;1.58;;;12.90;99.90;;;;;;5025894;28;20478;-62
2023/10/29 09:56:14;;;;;;;7.68;2.20;;;13.10;99.90;;;;;;5031956;28;20052;-62
2023/10/29 09:58:40;;;;;;;5.80;1.50;;;13.20;99.90;;;;;;5027014;28;20124;-62
2023/10/29 10:01:06;;;;;;;5.78;1.95;;;13.40;99.90;;;;;;5012437;28;20123;-62
2023/10/29 10:03:32;;;;;;;6.28;1.80;;;13.50;99.90;;;;;;5012776;28;20041;-61
2023/10/29 10:05:58;;;;;;;6.10;2.08;;;13.60;99.90;;;;;;4997625;28;20052;-62
2023/10/29 10:08:28;;;;;;;7.63;1.65;;;13.70;99.90;;;;;;5014530;28;20045;-62
2023/10/29 10:10:56;;;;;;;9.65;2.10;;;13.70;99.90;;;;;;5015151;28;20123;-61
2023/10/29 10:13:54;;;;;;;5.63;1.35;;;13.70;99.90;;;;;;5024567;28;20061;-62
2023/10/29 10:16:20;;;;;;;7.25;1.58;;;13.70;99.90;;;;;;4974004;28;20107;-62
2023/10/29 10:18:57;;;;;;;8.70;2.60;;;13.70;99.90;;;;;;5031792;28;20060;-61
2023/10/29 10:21:43;;;;;;;6.90;1.90;;;13.60;99.90;;;;;;5031862;28;20049;-62
2023/10/29 10:24:10;;;;;;;5.38;1.70;;;13.50;99.90;;;;;;5016217;28;20052;-62
2023/10/29 10:26:37;;;;;;;3.97;1.50;;;13.50;99.90;;;;;;5011828;28;20041;-61
2023/10/29 10:29:07;;;;;;;7.65;1.40;;;13.50;99.90;;;;;;5024922;28;20076;-63
2023/10/29 10:31:35;;;;;;;6.25;1.80;;;13.40;99.90;;;;;;5029520;28;20049;-63
2023/10/29 10:34:15;;;;;;;6.28;1.55;;;13.40;99.90;;;;;;5015424;28;20156;-63
2023/10/29 10:36:46;;;;;;;4.97;1.50;;;13.40;99.90;;;;;;5024390;28;20045;-63
2023/10/29 10:39:12;;;;;;;4.20;1.48;;;13.30;99.90;;;;;;5025082;28;20045;-64
2023/10/29 10:41:41;;;;;;;7.50;2.00;;;13.30;99.90;;;;;;5031241;28;20056;-63
2023/10/29 10:44:12;;;;;;;7.97;1.90;;;13.30;99.90;;;;;;5031100;28;20053;-63
2023/10/29 10:46:50;;;;;;;5.75;2.10;;;13.20;99.90;;;;;;5029954;28;20045;-63
2023/10/29 10:49:16;;;;;;;5.68;1.90;;;13.20;99.90;;;;;;5031215;28;20421;-65
2023/10/29 10:51:43;;;;;;;6.45;1.60;;;13.10;99.90;;;;;;5013441;28;20162;-64
2023/10/29 10:54:09;;;;;;;7.85;1.75;;;13.10;99.90;;;;;;5037729;28;20057;-63
2023/10/29 10:56:36;;;;;;;6.72;1.85;;;13.10;99.90;;;;;;5031305;28;20405;-63
2023/10/29 10:59:07;;;;;;;5.80;2.20;;;13.00;99.90;;;;;;5030274;28;20044;-64
2023/10/29 11:01:35;;;;;;;6.57;2.10;;;13.10;99.90;;;;;;5030229;28;20045;-63
2023/10/29 11:04:03;;;;;;;7.80;2.50;;;13.00;99.90;;;;;;5029359;28;20045;-62
2023/10/29 11:06:30;;;;;;;7.30;1.90;;;13.00;99.90;;;;;;5031656;28;20044;-63
2023/10/29 11:08:57;;;;;;;7.70;2.22;;;13.10;99.90;;;;;;5047998;28;20115;-62
2023/10/29 11:11:27;;;;;;;5.13;2.10;;;13.10;99.90;;;;;;5048313;28;20045;-62
2023/10/29 11:14:13;;;;;;;6.50;2.08;;;13.10;99.90;;;;;;5029507;28;20049;-62
2023/10/29 11:16:49;;;;;;;4.50;1.55;;;13.10;99.90;;;;;;5029960;28;20068;-62
2023/10/29 11:19:43;;;;;;;8.55;1.58;;;13.20;99.90;;;;;;5013736;28;20102;-62
2023/10/29 11:22:15;;;;;;;8.88;1.70;;;13.10;99.90;;;;;;5020886;28;20047;-62
2023/10/29 11:24:41;;;;;;;9.57;2.10;;;13.10;99.90;;;;;;5017820;28;20041;-62
2023/10/29 11:27:40;;;;;;;7.10;1.60;;;13.20;99.90;;;;;;5027173;28;20044;-63
2023/10/29 11:30:21;;;;;;;7.18;2.08;;;13.30;99.90;;;;;;5030870;28;20052;-62
2023/10/29 11:33:12;;;;;;;8.38;1.75;;;13.40;99.90;;;;;;5030152;28;20107;-62
2023/10/29 11:35:40;;;;;;;10.40;1.92;;;13.50;99.90;;;;;;4998748;28;20045;-62
2023/10/29 11:38:31;;;;;;;6.65;2.03;;;13.50;99.90;;;;;;5030563;28;20059;-61
2023/10/29 11:41:20;;;;;;;7.15;1.80;;;13.60;99.90;;;;;;5012902;28;20103;-61
2023/10/29 11:43:46;;;;;;;10.07;2.40;;;13.60;99.90;;;;;;5030854;28;20048;-62
2023/10/29 11:46:11;;;;;;;9.43;2.55;;;13.50;99.90;;;;;;5030645;28;20654;-62
2023/10/29 11:49:04;;;;;;;8.13;2.42;;;13.50;99.90;;;;;;5050044;28;20044;-62
2023/10/29 11:51:30;;;;;;;10.13;2.65;;;13.60;99.90;;;;;;5020227;28;20116;-62
2023/10/29 11:54:02;;;;;;;11.00;2.05;;;13.60;99.90;;;;;;5030718;28;20132;-63
2023/10/29 11:56:31;;;;;;;9.05;2.08;;;13.70;99.90;;;;;;5015706;28;20084;-62
2023/10/29 11:59:05;;;;;;;10.90;2.22;;;13.70;99.90;;;;;;5029962;28;20056;-62
2023/10/29 12:01:31;;;;;;;10.20;1.83;;;13.70;99.90;;;;;;5029955;28;20037;-63
2023/10/29 12:03:56;;;;;;;12.18;2.63;;;13.70;99.90;;;;;;5038271;28;20366;-62
2023/10/29 12:06:39;;;;;;;10.27;2.40;;;13.60;99.90;;;;;;5011741;28;20815;-62
2023/10/29 12:09:25;;;;;;;12.85;2.97;;;13.60;99.90;;;;;;5014260;28;20038;-62
2023/10/29 12:11:54;;;;;;;13.88;3.00;;;13.50;99.90;;;;;;5021820;28;20064;-62
2023/10/29 12:14:55;;;;;;;8.68;3.00;;;13.50;99.90;;;;;;5047804;28;20053;-62
2023/10/29 12:17:21;;;;;;;11.90;4.70;;;13.40;99.90;;;;;;4976221;28;20055;-61
2023/10/29 12:19:47;;;;;;;11.40;3.00;;;13.30;99.90;;;;;;5034102;28;20049;-62
2023/10/29 12:22:24;;;;;;;10.98;3.30;;;13.20;99.90;;;;;;5013053;28;20049;-62
2023/10/29 12:24:54;;;;;;;9.23;3.13;;;13.20;99.90;;;;;;5046960;28;20037;-61
2023/10/29 12:27:22;;;;;;;9.95;3.63;;;13.20;99.90;;;;;;5013100;28;20482;-62
2023/10/29 12:29:49;;;;;;;13.40;4.80;;;13.20;99.90;;;;;;5046843;28;20049;-61
2023/10/29 12:32:19;;;;;;;13.48;3.83;;;13.20;99.90;;;;;;5012978;28;20050;-61
2023/10/29 12:34:56;;;;;;;10.23;2.38;;;13.20;99.90;;;;;;5030459;28;20115;-61
2023/10/29 12:37:26;;;;;;;8.25;2.97;;;13.20;99.90;;;;;;5017267;28;20045;-61
2023/10/29 12:39:55;;;;;;;9.18;3.22;;;13.20;99.90;;;;;;5016365;28;20049;-62
2023/10/29 12:42:24;;;;;;;12.10;3.92;;;13.20;99.90;;;;;;5050396;28;20114;-62
2023/10/29 12:44:56;;;;;;;7.93;2.95;;;13.20;99.90;;;;;;5050321;28;20507;-62
2023/10/29 12:47:24;;;;;;;10.63;2.83;;;13.30;99.90;;;;;;5049535;28;20046;-62
2023/10/29 12:49:57;;;;;;;8.20;2.92;;;13.30;99.90;;;;;;5017194;28;20037;-62
2023/10/29 12:52:23;;;;;;;8.77;3.05;;;13.30;99.90;;;;;;5050207;28;20052;-62